createdAt,value
2023-04-11T00:00:22.238Z,9.45
2023-04-11T00:01:25.118Z,6.98
2023-04-11T00:02:27.892Z,4.47
2023-04-11T00:03:31.115Z,6.53
2023-04-11T00:04:34.415Z,5.59
2023-04-11T00:05:37.226Z,5.42
2023-04-11T00:06:40.216Z,5.44
2023-04-11T00:07:42.987Z,6.04
2023-04-11T00:08:45.755Z,7.68
2023-04-11T00:09:48.832Z,7.97
2023-04-11T00:10:51.700Z,7.20
2023-04-11T00:11:54.471Z,4.83
2023-04-11T00:12:57.385Z,7.83
2023-04-11T00:14:00.236Z,8.55
2023-04-11T00:15:03.027Z,7.05
2023-04-11T00:16:05.667Z,6.30
2023-04-11T00:17:08.228Z,6.10
2023-04-11T00:18:11.024Z,5.71
2023-04-11T00:19:13.682Z,4.18
2023-04-11T00:20:16.341Z,5.42
2023-04-11T00:21:19.012Z,7.08
2023-04-11T00:22:21.593Z,8.56
2023-04-11T00:23:24.255Z,5.29
2023-04-11T00:24:26.919Z,6.64
2023-04-11T00:25:29.617Z,14.84
2023-04-11T00:26:32.258Z,18.88
2023-04-11T00:27:34.935Z,8.35
2023-04-11T00:28:37.605Z,11.11
2023-04-11T00:29:40.274Z,23.42
2023-04-11T00:30:43.558Z,17.12
2023-04-11T00:31:46.383Z,11.50
2023-04-11T00:32:49.089Z,29.81
2023-04-11T00:33:51.885Z,17.52
2023-04-11T00:34:54.741Z,6.15
2023-04-11T00:35:57.456Z,8.31
2023-04-11T00:37:00.431Z,6.92
2023-04-11T00:38:03.367Z,17.81
2023-04-11T00:39:06.356Z,8.86
2023-04-11T00:40:09.240Z,9.40
2023-04-11T00:41:12.193Z,35.62
2023-04-11T00:42:14.964Z,11.92
2023-04-11T00:43:18.023Z,5.05
2023-04-11T00:44:20.849Z,6.30
2023-04-11T00:45:23.601Z,8.46
2023-04-11T00:46:26.809Z,16.07
2023-04-11T00:47:29.666Z,14.65
2023-04-11T00:48:32.522Z,39.50
2023-04-11T00:49:35.506Z,19.45
2023-04-11T00:50:38.370Z,27.91
2023-04-11T00:51:41.470Z,13.68
2023-04-11T00:52:44.329Z,12.37
2023-04-11T00:53:47.015Z,29.18
2023-04-11T00:54:51.107Z,12.53
2023-04-11T00:55:53.870Z,29.47
2023-04-11T00:56:57.156Z,13.22
2023-04-11T00:58:00.039Z,21.77
2023-04-11T00:59:02.711Z,74.08
2023-04-11T01:00:05.685Z,9.22
2023-04-11T01:01:08.372Z,7.86
2023-04-11T01:02:11.030Z,19.34
2023-04-11T01:03:13.774Z,59.85
2023-04-11T01:04:16.541Z,10.40
2023-04-11T01:05:19.236Z,18.27
2023-04-11T01:06:22.110Z,19.02
2023-04-11T01:07:25.298Z,26.64
2023-04-11T01:08:28.185Z,6.36
2023-04-11T01:09:31.156Z,6.15
2023-04-11T01:10:34.221Z,5.18
2023-04-11T01:11:37.238Z,4.26
2023-04-11T01:12:41.367Z,5.08
2023-04-11T01:13:44.179Z,5.29
2023-04-11T01:14:47.058Z,4.12
2023-04-11T01:15:49.929Z,4.75
2023-04-11T01:16:52.817Z,7.34
2023-04-11T01:17:56.227Z,5.36
2023-04-11T01:18:59.078Z,6.07
2023-04-11T01:20:01.976Z,5.55
2023-04-11T01:21:04.717Z,6.12
2023-04-11T01:22:07.695Z,8.46
2023-04-11T01:23:10.765Z,5.72
2023-04-11T01:24:13.624Z,4.88
2023-04-11T01:25:16.538Z,5.34
2023-04-11T01:26:19.502Z,7.18
2023-04-11T01:27:22.268Z,7.25
2023-04-11T01:28:25.452Z,5.41
2023-04-11T01:29:28.343Z,7.15
2023-04-11T01:30:31.200Z,6.55
2023-04-11T01:31:34.696Z,6.77
2023-04-11T01:32:37.693Z,5.88
2023-04-11T01:33:40.649Z,5.12
2023-04-11T01:34:43.423Z,7.18
2023-04-11T01:35:46.315Z,3.90
2023-04-11T01:36:49.264Z,5.62
2023-04-11T01:37:52.142Z,8.43
2023-04-11T01:38:55.167Z,5.97
2023-04-11T01:39:58.198Z,6.98
2023-04-11T01:41:00.966Z,5.90
2023-04-11T01:42:03.632Z,6.00
2023-04-11T01:43:06.319Z,5.05
2023-04-11T01:44:08.975Z,10.44
2023-04-11T01:45:11.652Z,9.65
2023-04-11T01:46:14.317Z,6.99
2023-04-11T01:47:16.998Z,4.86
2023-04-11T01:48:21.157Z,8.01
2023-04-11T01:49:24.068Z,6.20
2023-04-11T01:50:26.746Z,5.15
2023-04-11T01:51:29.713Z,6.08
2023-04-11T01:52:32.689Z,5.75
2023-04-11T01:53:35.568Z,5.75
2023-04-11T01:54:38.541Z,9.45
2023-04-11T01:55:41.824Z,6.08
2023-04-11T01:56:44.702Z,6.04
2023-04-11T01:57:47.777Z,3.79
2023-04-11T01:58:50.669Z,4.47
2023-04-11T01:59:53.630Z,5.04
2023-04-11T02:00:56.514Z,5.32
2023-04-11T02:01:59.497Z,4.25
2023-04-11T02:03:02.598Z,7.35
2023-04-11T02:04:05.771Z,21.53
2023-04-11T02:05:08.871Z,4.01
2023-04-11T02:06:11.622Z,5.01
2023-04-11T02:07:14.467Z,6.53
2023-04-11T02:08:17.346Z,6.12
2023-04-11T02:09:20.320Z,5.47
2023-04-11T02:10:23.911Z,4.59
2023-04-11T02:11:26.786Z,7.08
2023-04-11T02:12:29.671Z,8.28
2023-04-11T02:13:32.458Z,5.70
2023-04-11T02:14:35.207Z,5.30
2023-04-11T02:15:38.247Z,5.75
2023-04-11T02:16:41.065Z,4.55
2023-04-11T02:17:43.653Z,7.02
2023-04-11T02:18:46.406Z,6.83
2023-04-11T02:19:49.170Z,6.28
2023-04-11T02:20:52.773Z,5.04
2023-04-11T02:21:55.582Z,4.86
2023-04-11T02:22:58.411Z,6.55
2023-04-11T02:24:01.299Z,5.75
2023-04-11T02:25:04.157Z,7.31
2023-04-11T02:26:07.072Z,6.75
2023-04-11T02:27:10.009Z,6.94
2023-04-11T02:28:12.889Z,7.19
2023-04-11T02:29:15.764Z,7.85
2023-04-11T02:30:18.529Z,8.88
2023-04-11T02:31:22.408Z,11.10
2023-04-11T02:32:25.227Z,11.06
2023-04-11T02:33:27.975Z,8.02
2023-04-11T02:34:30.873Z,8.62
2023-04-11T02:35:33.751Z,9.09
2023-04-11T02:36:36.907Z,8.86
2023-04-11T02:37:39.677Z,8.44
2023-04-11T02:38:43.263Z,8.38
2023-04-11T02:39:49.224Z,10.84
2023-04-11T02:40:52.094Z,8.16
2023-04-11T02:41:55.271Z,9.32
2023-04-11T02:42:58.149Z,10.64
2023-04-11T02:44:00.921Z,9.72
2023-04-11T02:45:03.931Z,8.74
2023-04-11T02:46:12.600Z,7.98
2023-04-11T02:47:10.934Z,8.27
2023-04-11T02:48:13.650Z,10.36
2023-04-11T02:49:16.326Z,8.62
2023-04-11T02:50:18.899Z,7.50
2023-04-11T02:51:21.461Z,8.38
2023-04-11T02:52:24.119Z,7.54
2023-04-11T02:53:26.789Z,9.64
2023-04-11T02:54:29.282Z,7.08
2023-04-11T02:55:31.826Z,7.02
2023-04-11T02:56:34.491Z,8.73
2023-04-11T02:57:37.168Z,9.50
2023-04-11T02:58:39.832Z,6.98
2023-04-11T02:59:42.518Z,9.26
2023-04-11T03:00:45.168Z,6.50
2023-04-11T03:01:47.832Z,6.95
2023-04-11T03:02:50.725Z,7.01
2023-04-11T03:03:53.462Z,7.52
2023-04-11T03:04:56.158Z,9.20
2023-04-11T03:05:58.761Z,9.51
2023-04-11T03:07:01.851Z,9.04
2023-04-11T03:08:04.882Z,7.84
2023-04-11T03:09:07.757Z,7.75
2023-04-11T03:10:10.632Z,6.70
2023-04-11T03:11:13.507Z,7.11
2023-04-11T03:12:17.616Z,5.99
2023-04-11T03:13:22.315Z,7.16
2023-04-11T03:14:26.317Z,7.36
2023-04-11T03:15:29.002Z,6.73
2023-04-11T03:16:31.905Z,7.58
2023-04-11T03:17:36.116Z,8.65
2023-04-11T03:18:39.575Z,5.97
2023-04-11T03:19:42.344Z,6.69
2023-04-11T03:20:45.623Z,6.39
2023-04-11T03:21:48.405Z,8.46
2023-04-11T03:22:51.286Z,9.30
2023-04-11T03:23:54.560Z,7.92
2023-04-11T03:24:57.436Z,11.59
2023-04-11T03:26:00.432Z,7.60
2023-04-11T03:27:03.287Z,5.65
2023-04-11T03:28:06.266Z,6.84
2023-04-11T03:29:09.348Z,7.52
2023-04-11T03:30:12.113Z,7.98
2023-04-11T03:31:14.833Z,8.39
2023-04-11T03:32:17.762Z,6.52
2023-04-11T03:33:20.737Z,8.99
2023-04-11T03:34:23.921Z,8.28
2023-04-11T03:35:26.825Z,8.52
2023-04-11T03:36:29.592Z,6.92
2023-04-11T03:37:32.546Z,5.92
2023-04-11T03:38:38.182Z,7.57
2023-04-11T03:39:41.067Z,8.80
2023-04-11T03:40:43.541Z,9.32
2023-04-11T03:41:46.206Z,11.46
2023-04-11T03:42:48.771Z,6.92
2023-04-11T03:43:51.550Z,8.02
2023-04-11T03:44:54.511Z,8.20
2023-04-11T03:45:57.181Z,12.15
2023-04-11T03:46:59.790Z,9.80
2023-04-11T03:48:03.580Z,10.48
2023-04-11T03:49:06.321Z,9.84
2023-04-11T03:50:09.225Z,7.97
2023-04-11T03:51:11.962Z,6.25
2023-04-11T03:52:14.842Z,6.79
2023-04-11T03:53:17.821Z,9.42
2023-04-11T03:54:20.697Z,6.56
2023-04-11T03:55:23.880Z,8.50
2023-04-11T03:56:26.762Z,8.36
2023-04-11T03:57:29.517Z,9.64
2023-04-11T03:58:32.510Z,9.81
2023-04-11T03:59:35.366Z,8.13
2023-04-11T04:00:40.966Z,8.53
2023-04-11T04:01:43.807Z,7.99
2023-04-11T04:02:46.896Z,8.52
2023-04-11T04:03:50.423Z,9.00
2023-04-11T04:04:53.251Z,10.56
2023-04-11T04:05:56.199Z,8.00
2023-04-11T04:06:59.075Z,7.94
2023-04-11T04:08:02.053Z,8.78
2023-04-11T04:09:06.736Z,7.55
2023-04-11T04:10:09.661Z,10.45
2023-04-11T04:11:12.728Z,9.99
2023-04-11T04:12:15.498Z,8.95
2023-04-11T04:13:18.476Z,8.18
2023-04-11T04:14:21.363Z,12.04
2023-04-11T04:15:24.225Z,8.63
2023-04-11T04:16:27.114Z,8.13
2023-04-11T04:17:30.002Z,8.28
2023-04-11T04:18:32.946Z,9.38
2023-04-11T04:19:35.723Z,10.76
2023-04-11T04:20:38.693Z,10.44
2023-04-11T04:21:41.893Z,9.30
2023-04-11T04:22:44.550Z,9.42
2023-04-11T04:23:47.223Z,8.95
2023-04-11T04:24:51.423Z,9.15
2023-04-11T04:25:54.028Z,7.13
2023-04-11T04:26:57.130Z,8.84
2023-04-11T04:27:59.635Z,9.88
2023-04-11T04:29:02.429Z,10.59
2023-04-11T04:30:05.073Z,9.69
2023-04-11T04:31:07.752Z,9.26
2023-04-11T04:32:10.998Z,10.34
2023-04-11T04:33:14.123Z,12.88
2023-04-11T04:34:17.099Z,14.10
2023-04-11T04:35:19.961Z,8.81
2023-04-11T04:36:22.734Z,10.18
2023-04-11T04:37:25.742Z,12.62
2023-04-11T04:38:28.596Z,8.48
2023-04-11T04:39:31.470Z,8.42
2023-04-11T04:40:34.234Z,9.92
2023-04-11T04:41:37.416Z,10.06
2023-04-11T04:42:40.405Z,13.18
2023-04-11T04:43:43.374Z,10.70
2023-04-11T04:44:46.355Z,9.08
2023-04-11T04:45:54.659Z,10.59
2023-04-11T04:46:57.728Z,11.94
2023-04-11T04:48:00.941Z,13.23
2023-04-11T04:49:03.895Z,10.25
2023-04-11T04:50:06.881Z,9.82
2023-04-11T04:51:09.740Z,7.99
2023-04-11T04:52:12.510Z,8.04
2023-04-11T04:53:15.393Z,8.50
2023-04-11T04:54:18.274Z,7.91
2023-04-11T04:55:21.346Z,8.36
2023-04-11T04:56:24.636Z,12.22
2023-04-11T04:57:27.602Z,10.23
2023-04-11T04:58:30.592Z,10.49
2023-04-11T04:59:33.454Z,10.25
2023-04-11T05:00:36.536Z,9.85
2023-04-11T05:01:39.666Z,9.84
2023-04-11T05:02:42.729Z,10.85
2023-04-11T05:03:46.531Z,19.36
2023-04-11T05:04:49.472Z,8.80
2023-04-11T05:05:52.364Z,9.97
2023-04-11T05:06:55.344Z,8.75
2023-04-11T05:07:58.087Z,9.33
2023-04-11T05:09:00.773Z,8.55
2023-04-11T05:10:03.431Z,10.22
2023-04-11T05:11:07.230Z,8.72
2023-04-11T05:12:10.111Z,9.78
2023-04-11T05:13:12.973Z,9.28
2023-04-11T05:14:24.050Z,8.84
2023-04-11T05:15:26.610Z,6.77
2023-04-11T05:16:29.409Z,10.57
2023-04-11T05:17:32.091Z,12.51
2023-04-11T05:18:34.944Z,10.63
2023-04-11T05:19:38.011Z,10.73
2023-04-11T05:20:42.213Z,10.13
2023-04-11T05:21:44.996Z,9.63
2023-04-11T05:22:48.341Z,10.15
2023-04-11T05:23:51.173Z,11.44
2023-04-11T05:24:54.125Z,11.18
2023-04-11T05:25:57.097Z,11.91
2023-04-11T05:26:59.972Z,12.87
2023-04-11T05:28:02.862Z,15.37
2023-04-11T05:29:05.722Z,11.11
2023-04-11T05:30:08.701Z,13.26
2023-04-11T05:31:11.670Z,12.54
2023-04-11T05:32:14.443Z,11.15
2023-04-11T05:33:17.432Z,12.60
2023-04-11T05:34:20.502Z,16.70
2023-04-11T05:35:23.603Z,13.08
2023-04-11T05:36:26.569Z,13.40
2023-04-11T05:37:29.433Z,17.35
2023-04-11T05:38:32.317Z,11.47
2023-04-11T05:39:35.193Z,12.69
2023-04-11T05:40:38.372Z,11.67
2023-04-11T05:41:41.245Z,14.62
2023-04-11T05:42:44.122Z,11.07
2023-04-11T05:43:47.509Z,11.20
2023-04-11T05:44:50.276Z,13.66
2023-04-11T05:45:53.372Z,11.90
2023-04-11T05:46:56.334Z,18.25
2023-04-11T05:47:59.276Z,12.95
2023-04-11T05:49:01.903Z,11.12
2023-04-11T05:50:04.452Z,16.07
2023-04-11T05:51:07.113Z,12.71
2023-04-11T05:52:09.683Z,11.44
2023-04-11T05:53:12.252Z,10.85
2023-04-11T05:54:14.921Z,12.07
2023-04-11T05:55:17.691Z,12.03
2023-04-11T05:56:20.769Z,11.96
2023-04-11T05:57:23.855Z,15.30
2023-04-11T05:58:26.638Z,15.48
2023-04-11T05:59:29.393Z,17.58
2023-04-11T06:00:32.358Z,10.44
2023-04-11T06:01:35.496Z,14.20
2023-04-11T06:02:38.490Z,13.78
2023-04-11T06:03:41.738Z,12.52
2023-04-11T06:04:45.072Z,15.08
2023-04-11T06:05:48.071Z,12.18
2023-04-11T06:06:51.051Z,11.22
2023-04-11T06:07:53.942Z,11.57
2023-04-11T06:08:56.806Z,13.47
2023-04-11T06:09:59.571Z,16.82
2023-04-11T06:11:02.344Z,16.41
2023-04-11T06:12:05.018Z,15.26
2023-04-11T06:13:07.685Z,13.05
2023-04-11T06:14:10.362Z,12.52
2023-04-11T06:15:13.257Z,13.70
2023-04-11T06:16:15.858Z,13.10
2023-04-11T06:17:18.773Z,13.85
2023-04-11T06:18:21.540Z,14.15
2023-04-11T06:19:24.219Z,17.18
2023-04-11T06:20:27.905Z,14.26
2023-04-11T06:21:30.484Z,12.39
2023-04-11T06:22:33.262Z,15.30
2023-04-11T06:23:36.838Z,14.58
2023-04-11T06:24:39.410Z,13.35
2023-04-11T06:25:42.007Z,13.88
2023-04-11T06:26:44.645Z,15.73
2023-04-11T06:27:47.328Z,13.48
2023-04-11T06:28:49.985Z,14.95
2023-04-11T06:29:52.655Z,14.15
2023-04-11T06:30:55.257Z,11.83
2023-04-11T06:31:58.246Z,13.67
2023-04-11T06:33:01.199Z,14.26
2023-04-11T06:34:04.050Z,14.27
2023-04-11T06:35:06.935Z,15.18
2023-04-11T06:36:09.727Z,14.92
2023-04-11T06:37:12.713Z,12.54
2023-04-11T06:38:15.447Z,10.85
2023-04-11T06:39:18.435Z,12.90
2023-04-11T06:40:21.206Z,12.36
2023-04-11T06:41:24.081Z,14.31
2023-04-11T06:42:26.958Z,12.40
2023-04-11T06:43:32.897Z,14.39
2023-04-11T06:44:35.791Z,12.47
2023-04-11T06:45:38.773Z,13.59
2023-04-11T06:46:41.683Z,14.02
2023-04-11T06:47:44.503Z,13.28
2023-04-11T06:48:47.980Z,12.37
2023-04-11T06:49:50.967Z,12.68
2023-04-11T06:50:54.150Z,10.65
2023-04-11T06:51:57.025Z,11.04
2023-04-11T06:52:59.893Z,12.62
2023-04-11T06:54:03.100Z,10.98
2023-04-11T06:55:05.847Z,12.02
2023-04-11T06:56:08.728Z,11.48
2023-04-11T06:57:11.803Z,10.91
2023-04-11T06:58:14.681Z,10.42
2023-04-11T06:59:17.652Z,11.05
2023-04-11T07:00:20.425Z,10.36
2023-04-11T07:01:23.330Z,10.07
2023-04-11T07:02:26.451Z,6.80
2023-04-11T07:03:29.550Z,7.62
2023-04-11T07:04:32.765Z,9.94
2023-04-11T07:05:36.548Z,12.85
2023-04-11T07:06:39.524Z,10.38
2023-04-11T07:07:42.191Z,14.94
2023-04-11T07:08:44.855Z,11.88
2023-04-11T07:09:47.539Z,7.79
2023-04-11T07:10:50.196Z,8.61
2023-04-11T07:11:52.869Z,9.57
2023-04-11T07:12:55.663Z,8.88
2023-04-11T07:13:58.391Z,8.62
2023-04-11T07:15:01.578Z,7.52
2023-04-11T07:16:04.393Z,7.05
2023-04-11T07:17:07.257Z,8.60
2023-04-11T07:18:10.153Z,8.85
2023-04-11T07:19:13.002Z,7.49
2023-04-11T07:20:16.079Z,11.61
2023-04-11T07:21:25.082Z,7.24
2023-04-11T07:22:27.857Z,7.95
2023-04-11T07:23:30.740Z,7.99
2023-04-11T07:24:33.979Z,7.35
2023-04-11T07:25:37.301Z,8.34
2023-04-11T07:26:40.070Z,7.77
2023-04-11T07:27:42.947Z,9.88
2023-04-11T07:28:46.126Z,10.62
2023-04-11T07:29:49.018Z,6.67
2023-04-11T07:30:52.097Z,10.38
2023-04-11T07:31:55.083Z,9.50
2023-04-11T07:32:57.954Z,11.58
2023-04-11T07:34:00.708Z,10.96
2023-04-11T07:35:03.685Z,9.06
2023-04-11T07:36:06.704Z,9.22
2023-04-11T07:37:09.513Z,9.62
2023-04-11T07:38:12.306Z,7.62
2023-04-11T07:39:15.190Z,12.68
2023-04-11T07:40:18.055Z,9.82
2023-04-11T07:41:21.235Z,8.56
2023-04-11T07:42:24.119Z,9.21
2023-04-11T07:43:26.987Z,10.26
2023-04-11T07:44:29.667Z,10.91
2023-04-11T07:45:32.532Z,8.91
2023-04-11T07:46:35.618Z,11.89
2023-04-11T07:47:38.063Z,11.18
2023-04-11T07:48:40.643Z,12.61
2023-04-11T07:49:43.761Z,8.17
2023-04-11T07:50:46.590Z,13.67
2023-04-11T07:51:49.578Z,14.76
2023-04-11T07:52:52.662Z,14.30
2023-04-11T07:53:55.778Z,14.28
2023-04-11T07:54:58.815Z,11.81
2023-04-11T07:56:01.720Z,13.86
2023-04-11T07:57:04.660Z,10.68
2023-04-11T07:58:07.542Z,10.47
2023-04-11T07:59:11.234Z,11.48
2023-04-11T08:00:14.115Z,13.69
2023-04-11T08:01:16.981Z,11.45
2023-04-11T08:02:20.081Z,11.97
2023-04-11T08:03:23.480Z,10.78
2023-04-11T08:04:26.973Z,13.51
2023-04-11T08:05:35.381Z,20.32
2023-04-11T08:06:38.126Z,14.40
2023-04-11T08:07:41.229Z,14.48
2023-04-11T08:08:43.968Z,12.89
2023-04-11T08:09:46.735Z,14.06
2023-04-11T08:10:51.907Z,19.05
2023-04-11T08:11:54.031Z,14.14
2023-04-11T08:12:57.011Z,15.19
2023-04-11T08:13:59.774Z,13.15
2023-04-11T08:15:02.457Z,13.47
2023-04-11T08:16:05.315Z,14.83
2023-04-11T08:17:17.680Z,15.14
2023-04-11T08:18:12.604Z,16.81
2023-04-11T08:19:15.476Z,19.14
2023-04-11T08:20:18.148Z,13.75
2023-04-11T08:21:20.716Z,13.02
2023-04-11T08:22:23.386Z,18.98
2023-04-11T08:23:26.664Z,16.43
2023-04-11T08:24:30.260Z,17.74
2023-04-11T08:25:32.829Z,16.98
2023-04-11T08:26:37.319Z,11.78
2023-04-11T08:27:39.838Z,13.08
2023-04-11T08:28:43.500Z,12.27
2023-04-11T08:29:46.691Z,13.74
2023-04-11T08:30:49.593Z,13.35
2023-04-11T08:31:52.534Z,12.88
2023-04-11T08:32:56.768Z,11.22
2023-04-11T08:34:01.071Z,11.46
2023-04-11T08:35:05.337Z,13.43
2023-04-11T08:36:08.163Z,14.31
2023-04-11T08:37:10.916Z,15.41
2023-04-11T08:38:13.886Z,16.58
2023-04-11T08:39:17.375Z,12.80
2023-04-11T08:40:20.207Z,12.23
2023-04-11T08:41:23.022Z,13.92
2023-04-11T08:42:25.898Z,12.30
2023-04-11T08:43:28.767Z,11.73
2023-04-11T08:44:31.755Z,12.05
2023-04-11T08:45:34.820Z,14.63
2023-04-11T08:46:37.840Z,12.15
2023-04-11T08:47:41.924Z,10.94
2023-04-11T08:48:45.299Z,12.18
2023-04-11T08:49:48.764Z,13.58
2023-04-11T08:50:51.853Z,12.71
2023-04-11T08:51:55.149Z,10.90
2023-04-11T08:52:58.117Z,12.55
2023-04-11T08:54:01.207Z,12.89
2023-04-11T08:55:04.086Z,14.32
2023-04-11T08:56:07.082Z,11.90
2023-04-11T08:57:09.709Z,11.68
2023-04-11T08:58:12.555Z,11.63
2023-04-11T08:59:15.167Z,11.74
2023-04-11T09:00:18.273Z,13.93
2023-04-11T09:01:21.545Z,17.12
2023-04-11T09:02:25.078Z,10.46
2023-04-11T09:03:28.336Z,9.39
2023-04-11T09:04:31.203Z,10.40
2023-04-11T09:05:34.653Z,9.55
2023-04-11T09:06:37.653Z,11.04
2023-04-11T09:07:40.931Z,11.71
2023-04-11T09:08:44.013Z,8.43
2023-04-11T09:09:47.497Z,13.30
2023-04-11T09:10:50.993Z,11.95
2023-04-11T09:11:54.493Z,12.46
2023-04-11T09:12:59.551Z,14.63
2023-04-11T09:14:04.433Z,12.58
2023-04-11T09:15:07.498Z,11.66
2023-04-11T09:16:10.578Z,13.50
2023-04-11T09:17:13.912Z,13.17
2023-04-11T09:18:16.830Z,11.95
2023-04-11T09:19:19.820Z,12.12
2023-04-11T09:20:24.226Z,11.08
2023-04-11T09:21:27.116Z,12.42
2023-04-11T09:22:29.976Z,13.81
2023-04-11T09:23:34.703Z,11.31
2023-04-11T09:24:37.673Z,13.01
2023-04-11T09:25:40.545Z,13.31
2023-04-11T09:26:43.309Z,12.36
2023-04-11T09:27:45.997Z,14.49
2023-04-11T09:28:48.755Z,10.55
2023-04-11T09:29:51.336Z,12.26
2023-04-11T09:30:54.054Z,12.62
2023-04-11T09:31:57.096Z,13.62
2023-04-11T09:32:59.857Z,11.94
2023-04-11T09:34:02.823Z,10.86
2023-04-11T09:35:05.901Z,11.50
2023-04-11T09:36:08.931Z,12.19
2023-04-11T09:37:12.175Z,11.42
2023-04-11T09:38:17.112Z,15.48
2023-04-11T09:39:22.300Z,12.37
2023-04-11T09:40:25.202Z,13.19
2023-04-11T09:41:28.071Z,10.49
2023-04-11T09:42:30.843Z,14.55
2023-04-11T09:43:33.815Z,12.49
2023-04-11T09:44:36.701Z,15.46
2023-04-11T09:45:51.661Z,15.83
2023-04-11T09:46:44.191Z,15.49
2023-04-11T09:47:47.259Z,14.19
2023-04-11T09:48:49.839Z,12.59
2023-04-11T09:49:52.498Z,12.21
2023-04-11T09:50:58.558Z,13.90
2023-04-11T09:51:59.276Z,10.90
2023-04-11T09:53:02.979Z,14.64
2023-04-11T09:54:06.214Z,13.64
2023-04-11T09:55:12.317Z,9.90
2023-04-11T09:56:14.870Z,12.71
2023-04-11T09:57:23.798Z,12.83
2023-04-11T09:58:26.453Z,13.33
2023-04-11T09:59:29.426Z,12.29
2023-04-11T10:00:32.219Z,13.90
2023-04-11T10:01:35.220Z,14.11
2023-04-11T10:02:38.164Z,16.32
2023-04-11T10:03:41.064Z,16.28
2023-04-11T10:04:43.726Z,15.44
2023-04-11T10:05:47.507Z,12.58
2023-04-11T10:06:50.473Z,12.07
2023-04-11T10:07:53.148Z,14.12
2023-04-11T10:08:56.060Z,14.77
2023-04-11T10:09:58.887Z,12.12
2023-04-11T10:11:01.674Z,12.66
2023-04-11T10:12:04.459Z,11.95
2023-04-11T10:13:08.441Z,14.89
2023-04-11T10:14:11.615Z,18.99
2023-04-11T10:15:14.502Z,13.76
2023-04-11T10:16:17.287Z,12.22
2023-04-11T10:17:22.580Z,11.58
2023-04-11T10:18:24.553Z,14.13
2023-04-11T10:19:27.428Z,14.45
2023-04-11T10:20:31.444Z,17.50
2023-04-11T10:21:34.197Z,14.10
2023-04-11T10:22:38.093Z,13.78
2023-04-11T10:23:40.970Z,14.19
2023-04-11T10:24:43.952Z,14.77
2023-04-11T10:25:46.719Z,12.59
2023-04-11T10:26:49.498Z,18.59
2023-04-11T10:27:52.366Z,19.68
2023-04-11T10:28:55.354Z,15.44
2023-04-11T10:29:58.217Z,16.20
2023-04-11T10:31:01.118Z,15.88
2023-04-11T10:32:03.814Z,17.40
2023-04-11T10:33:06.569Z,17.94
2023-04-11T10:34:09.205Z,17.46
2023-04-11T10:35:11.975Z,18.27
2023-04-11T10:36:14.873Z,15.68
2023-04-11T10:37:17.829Z,17.53
2023-04-11T10:38:20.710Z,17.56
2023-04-11T10:39:23.476Z,16.33
2023-04-11T10:40:26.482Z,14.47
2023-04-11T10:41:29.258Z,18.40
2023-04-11T10:42:31.998Z,16.35
2023-04-11T10:43:36.162Z,18.45
2023-04-11T10:44:39.185Z,15.51
2023-04-11T10:45:42.260Z,15.71
2023-04-11T10:46:45.187Z,16.77
2023-04-11T10:47:48.325Z,17.84
2023-04-11T10:48:51.206Z,15.72
2023-04-11T10:49:54.075Z,13.62
2023-04-11T10:50:56.953Z,16.94
2023-04-11T10:51:59.713Z,16.06
2023-04-11T10:53:02.692Z,16.46
2023-04-11T10:54:07.196Z,16.60
2023-04-11T10:55:09.991Z,15.65
2023-04-11T10:56:12.857Z,14.18
2023-04-11T10:57:15.750Z,15.43
2023-04-11T10:58:18.608Z,17.43
2023-04-11T10:59:21.378Z,16.75
2023-04-11T11:00:27.630Z,15.14
2023-04-11T11:01:37.196Z,15.87
2023-04-11T11:02:35.558Z,20.51
2023-04-11T11:03:44.278Z,15.25
2023-04-11T11:04:47.525Z,15.08
2023-04-11T11:05:50.393Z,16.22
2023-04-11T11:06:57.446Z,16.00
2023-04-11T11:08:00.352Z,18.22
2023-04-11T11:09:03.215Z,16.02
2023-04-11T11:10:06.200Z,17.17
2023-04-11T11:11:09.084Z,15.16
2023-04-11T11:12:12.163Z,20.17
2023-04-11T11:13:15.035Z,17.93
2023-04-11T11:14:23.331Z,18.00
2023-04-11T11:15:26.216Z,17.94
2023-04-11T11:16:29.106Z,16.71
2023-04-11T11:17:37.586Z,15.68
2023-04-11T11:18:40.553Z,14.21
2023-04-11T11:19:43.544Z,14.93
2023-04-11T11:20:48.227Z,16.75
2023-04-11T11:21:50.954Z,13.90
2023-04-11T11:22:54.850Z,16.76
2023-04-11T11:23:58.110Z,14.95
2023-04-11T11:25:01.394Z,15.48
2023-04-11T11:26:04.267Z,18.04
2023-04-11T11:27:07.045Z,17.19
2023-04-11T11:28:10.024Z,17.76
2023-04-11T11:29:12.785Z,18.80
2023-04-11T11:30:17.876Z,13.40
2023-04-11T11:31:20.609Z,16.93
2023-04-11T11:32:23.366Z,18.39
2023-04-11T11:33:28.043Z,15.72
2023-04-11T11:34:32.693Z,15.05
2023-04-11T11:35:35.352Z,17.08
2023-04-11T11:36:39.235Z,16.75
2023-04-11T11:37:41.827Z,17.68
2023-04-11T11:38:45.021Z,21.48
2023-04-11T11:39:50.226Z,17.15
2023-04-11T11:40:52.894Z,16.71
2023-04-11T11:41:55.676Z,18.04
2023-04-11T11:42:59.791Z,17.40
2023-04-11T11:44:02.970Z,18.59
2023-04-11T11:45:05.729Z,17.99
2023-04-11T11:46:08.857Z,16.75
2023-04-11T11:47:11.791Z,13.42
2023-04-11T11:48:16.304Z,16.56
2023-04-11T11:49:19.593Z,15.14
2023-04-11T11:50:22.561Z,13.73
2023-04-11T11:51:25.639Z,14.05
2023-04-11T11:52:28.414Z,16.35
2023-04-11T11:53:31.291Z,15.18
2023-04-11T11:54:34.373Z,14.49
2023-04-11T11:55:37.151Z,12.42
2023-04-11T11:56:40.044Z,14.02
2023-04-11T11:57:42.996Z,15.18
2023-04-11T11:58:45.808Z,14.78
2023-04-11T11:59:49.058Z,17.01
2023-04-11T12:00:52.080Z,16.93
2023-04-11T12:01:54.931Z,18.00
2023-04-11T12:02:57.927Z,14.07
2023-04-11T12:04:04.090Z,15.19
2023-04-11T12:05:07.428Z,15.90
2023-04-11T12:06:10.405Z,13.58
2023-04-11T12:07:13.175Z,16.18
2023-04-11T12:08:16.045Z,15.39
2023-04-11T12:09:20.161Z,17.97
2023-04-11T12:10:23.127Z,16.46
2023-04-11T12:11:25.805Z,17.28
2023-04-11T12:12:28.364Z,14.62
2023-04-11T12:13:33.257Z,15.87
2023-04-11T12:14:35.755Z,13.91
2023-04-11T12:15:39.187Z,13.92
2023-04-11T12:16:43.759Z,16.11
2023-04-11T12:17:46.891Z,12.79
2023-04-11T12:18:49.601Z,14.19
2023-04-11T12:19:52.180Z,17.78
2023-04-11T12:20:56.197Z,13.03
2023-04-11T12:21:58.879Z,15.56
2023-04-11T12:23:02.123Z,15.50
2023-04-11T12:24:04.918Z,11.87
2023-04-11T12:25:07.476Z,16.67
2023-04-11T12:26:10.042Z,15.22
2023-04-11T12:27:12.732Z,16.45
2023-04-11T12:28:15.382Z,14.51
2023-04-11T12:29:18.257Z,14.43
2023-04-11T12:30:21.458Z,17.52
2023-04-11T12:31:24.335Z,11.93
2023-04-11T12:32:27.288Z,15.21
2023-04-11T12:33:31.774Z,14.67
2023-04-11T12:34:34.662Z,12.91
2023-04-11T12:35:38.214Z,18.96
2023-04-11T12:36:41.152Z,13.42
2023-04-11T12:37:43.919Z,16.65
2023-04-11T12:38:46.686Z,14.52
2023-04-11T12:39:49.664Z,19.53
2023-04-11T12:41:26.390Z,21.09
2023-04-11T12:42:09.966Z,20.20
2023-04-11T12:43:12.514Z,35.26
2023-04-11T12:44:20.404Z,37.46
2023-04-11T12:45:22.992Z,23.89
2023-04-11T12:46:25.903Z,15.30
2023-04-11T12:47:28.953Z,16.27
2023-04-11T12:48:31.608Z,23.97
2023-04-11T12:49:40.707Z,38.53
2023-04-11T12:50:43.796Z,74.04
2023-04-11T12:51:46.578Z,81.00
2023-04-11T12:52:49.245Z,56.28
2023-04-11T12:53:52.092Z,34.65
2023-04-11T12:54:54.591Z,27.68
2023-04-11T12:55:57.697Z,37.32
2023-04-11T12:57:00.433Z,35.65
2023-04-11T12:58:03.621Z,29.59
2023-04-11T12:59:06.794Z,34.62
2023-04-11T13:00:09.298Z,31.39
2023-04-11T13:01:11.936Z,17.72
2023-04-11T13:02:14.583Z,20.06
2023-04-11T13:03:18.094Z,15.91
2023-04-11T13:04:21.047Z,17.75
2023-04-11T13:05:24.351Z,15.61
2023-04-11T13:06:27.338Z,13.75
2023-04-11T13:07:30.515Z,10.53
2023-04-11T13:08:33.604Z,12.58
2023-04-11T13:09:36.465Z,14.15
2023-04-11T13:10:41.036Z,12.15
2023-04-11T13:11:44.056Z,12.06
2023-04-11T13:12:46.835Z,14.95
2023-04-11T13:13:50.016Z,24.79
2023-04-11T13:14:52.892Z,40.98
2023-04-11T13:15:55.710Z,46.68
2023-04-11T13:16:58.437Z,74.85
2023-04-11T13:18:01.472Z,94.59
2023-04-11T13:19:04.492Z,78.04
2023-04-11T13:20:07.477Z,65.72
2023-04-11T13:21:10.541Z,52.66
2023-04-11T13:22:13.529Z,79.18
2023-04-11T13:23:17.397Z,70.55
2023-04-11T13:24:20.516Z,32.91
2023-04-11T13:25:23.498Z,19.58
2023-04-11T13:26:26.470Z,16.93
2023-04-11T13:27:29.736Z,15.32
2023-04-11T13:28:32.836Z,15.36
2023-04-11T13:29:35.699Z,10.95
2023-04-11T13:30:38.578Z,12.95
2023-04-11T13:31:41.873Z,23.46
2023-04-11T13:32:44.778Z,33.05
2023-04-11T13:33:47.716Z,51.92
2023-04-11T13:34:50.792Z,46.14
2023-04-11T13:35:53.960Z,58.60
2023-04-11T13:36:56.974Z,37.89
2023-04-11T13:38:00.221Z,46.40
2023-04-11T13:39:04.751Z,78.84
2023-04-11T13:40:07.423Z,70.87
2023-04-11T13:41:10.005Z,28.92
2023-04-11T13:42:13.878Z,46.25